Maersk Gateshead — OWNT2 — position and weather

sailwx.info

Track history (hours):
 
Tides and Currents Weather Stations Pressure Air Temp Water Temp Dewpoint Dewpoint Depression Visibility Wind Speed Wind Dir Waves Ship Positions

Maersk Gateshead

Last reported at 2017-Dec-10 08:40 UTC. Time now 2017-Dec-11 20:37 UTC.
Position N 31°56' W 080°27'.

Length 292 m; draft 11.1 m.

Type: Ship (hazmat cat A). MMSI: 219587000.

Date/timePositionNaut miles runAvg speedWind from/ knotsBaromVisibWave heightAir tempDewpointWater temp
2017-Dec-10 08:40N 31°56' W 080°27'2 9.5
2017-Dec-10 08:29N 31°56' W 080°29'4 9.5
2017-Dec-10 08:00N 31°56' W 080°35'5 9.3
2017-Dec-10 07:29N 31°56' W 080°40'5 9.3
2017-Dec-10 06:56N 31°59' W 080°46'614.5
2017-Dec-10 06:30N 32°02' W 080°52'611.5
2017-Dec-10 06:00N 32°04' W 080°58'4 8.3
2017-Dec-10 05:30N 32°05' W 081°03'3 6.1
2017-Dec-10 05:00N 32°06' W 081°06'3 5.1
2017-Dec-10 04:30N 32°08' W 081°08'0 0.4
2017-Dec-10 03:58N 32°08' W 081°08'0 0.0
2017-Dec-10 03:28N 32°08' W 081°08'0 0.0
2017-Dec-10 02:52N 32°08' W 081°08'0 0.0
2017-Dec-10 02:22N 32°08' W 081°08'0 0.0
2017-Dec-10 01:58N 32°08' W 081°08'0 0.0
2017-Dec-10 01:28N 32°08' W 081°08'0 0.0
2017-Dec-10 00:58N 32°08' W 081°08'0 0.0
2017-Dec-10 00:22N 32°08' W 081°08'0 0.0
2017-Dec-09 23:58N 32°08' W 081°08'0 0.0
2017-Dec-09 23:28N 32°08' W 081°08'0 0.0
2017-Dec-09 22:58N 32°08' W 081°08'0 0.0
2017-Dec-09 22:28N 32°08' W 081°08'0 0.0
2017-Dec-09 21:58N 32°08' W 081°08'0 0.0
2017-Dec-09 21:28N 32°08' W 081°08'0 0.0
2017-Dec-09 20:58N 32°08' W 081°08'0 0.0
2017-Dec-09 20:28N 32°08' W 081°08'0 0.0
2017-Dec-09 19:58N 32°08' W 081°08'0 0.0
2017-Dec-09 19:28N 32°08' W 081°08'0 0.0
2017-Dec-09 18:58N 32°08' W 081°08'0 0.0
2017-Dec-09 18:28N 32°08' W 081°08'0 0.0
2017-Dec-09 17:58N 32°08' W 081°08'0 0.0
2017-Dec-09 17:28N 32°08' W 081°08'0 0.0
2017-Dec-09 16:58N 32°08' W 081°08'0 0.0
2017-Dec-09 16:28N 32°08' W 081°08'0 0.0
2017-Dec-09 15:52N 32°08' W 081°08'0 0.0
2017-Dec-09 15:22N 32°08' W 081°08'0 0.0
2017-Dec-09 14:58N 32°08' W 081°08'0 0.0
2017-Dec-09 14:28N 32°08' W 081°08'0 0.0
2017-Dec-09 13:58N 32°08' W 081°08'0 0.0
2017-Dec-09 13:28N 32°08' W 081°08'0 0.0
2017-Dec-09 12:58N 32°08' W 081°08'0 0.0
2017-Dec-09 12:28N 32°08' W 081°08'0 0.0
2017-Dec-09 11:46N 32°08' W 081°08'0 0.0
2017-Dec-09 11:28N 32°08' W 081°08'0 0.0
2017-Dec-09 10:58N 32°08' W 081°08'0 0.0
2017-Dec-09 10:31N 32°08' W 081°08'1 1.3
2017-Dec-09 10:01N 32°07' W 081°08'3 6.0
2017-Dec-09 09:30N 32°05' W 081°05'2 4.9
2017-Dec-09 09:01N 32°05' W 081°03'4 7.7
2017-Dec-09 08:30N 32°04' W 080°58'510.2
2017-Dec-09 08:01N 32°02' W 080°53'713.2
2017-Dec-09 07:30N 31°59' W 080°46'713.0
2017-Dec-09 07:00N 31°56' W 080°39'5 8.7
2017-Dec-09 06:28N 31°57' W 080°33'3 6.8
2017-Dec-09 05:58N 31°58' W 080°30'1 1.5
2017-Dec-09 05:09N 31°59' W 080°29'0 0.9
2017-Dec-09 04:45N 31°59' W 080°28'2 1.8
2017-Dec-09 03:33N 31°59' W 080°31'0 4.6
2017-Dec-09 03:30N 31°59' W 080°31'1 1.6
2017-Dec-09 02:50N 31°59' W 080°32'1 0.2
2017-Dec-08 21:43N 31°58' W 080°32'0 0.1
2017-Dec-08 21:25N 31°58' W 080°32'0 0.0
2017-Dec-07 19:19N 31°58' W 080°32'0 0.0
2017-Dec-07 18:55N 31°58' W 080°32'0 0.0
2017-Dec-07 06:49N 31°58' W 080°32'0 0.0
2017-Dec-07 04:19N 31°58' W 080°32'0 0.1
2017-Dec-07 02:49N 31°58' W 080°32'2 5.7
2017-Dec-07 02:28N 31°58' W 080°29'  
2017-Dec-04 03:00N 30°12' W 079°06'11012.2 010 / 151018.410.8 21.016.024.4
2017-Dec-03 18:00N 28°42' W 077°54'4514.9 280 / 101018.410.8 24.818.026.8
2017-Dec-03 15:00N 28°06' W 077°24'12313.7 360 / 51020.910.8 26.018.227.2
2017-Dec-03 06:00N 26°24' W 076°06'4515.0 040 / 201018.210.8 28.516.627.9
2017-Dec-03 03:00N 25°48' W 075°36'16914.1 040 / 181017.410.8 25.018.828.4
2017-Dec-02 15:00N 23°30' W 073°48'6822.7
2017-Dec-02 12:00N 22°24' W 073°30'9911.0 030 / 201014.910.8 26.820.629.6
2017-Dec-02 03:00N 20°48' W 073°54'4214.0 050 / 201012.310.8 26.023.130.4
2017-Dec-02 00:00N 20°06' W 073°54'13314.7 040 / 151012.410.8 28.123.030.7
2017-Dec-01 15:00N 18°06' W 074°54'4314.2 030 / 71013.310.8 29.023.230.1
2017-Dec-01 12:00N 17°30' W 075°18'9115.1 030 / 101012.810.8 27.722.430.4
2017-Dec-01 06:00N 16°12' W 076°06'4515.1 040 / 121011.210.8 27.224.030.6
2017-Dec-01 03:00N 15°30' W 076°24'17414.5 040 / 171012.310.8 28.023.730.4
2017-Nov-30 15:00N 13°00' W 077°54'   050 / 241012.310.8 29.024.830.2
Track history (hours):
 
Tides and Currents Weather Stations Pressure Air Temp Water Temp Dewpoint Dewpoint Depression Visibility Wind Speed Wind Dir Waves Ship Positions

Maersk Gateshead

Last reported at 2017-Dec-10 08:40 UTC. Time now 2017-Dec-11 20:37 UTC.
Position N 31°56' W 080°27'.

Length 292 m; draft 11.1 m.

Type: Ship (hazmat cat A). MMSI: 219587000.

Date/timePositionNaut miles runAvg speedWind from/ knotsBaromVisibWave heightAir tempDewpointWater temp
2017-Dec-10 08:40N 31°56' W 080°27'2 9.5
2017-Dec-10 08:29N 31°56' W 080°29'4 9.5
2017-Dec-10 08:00N 31°56' W 080°35'5 9.3
2017-Dec-10 07:29N 31°56' W 080°40'5 9.3
2017-Dec-10 06:56N 31°59' W 080°46'614.5
2017-Dec-10 06:30N 32°02' W 080°52'611.5
2017-Dec-10 06:00N 32°04' W 080°58'4 8.3
2017-Dec-10 05:30N 32°05' W 081°03'3 6.1
2017-Dec-10 05:00N 32°06' W 081°06'3 5.1
2017-Dec-10 04:30N 32°08' W 081°08'0 0.4
2017-Dec-10 03:58N 32°08' W 081°08'0 0.0
2017-Dec-10 03:28N 32°08' W 081°08'0 0.0
2017-Dec-10 02:52N 32°08' W 081°08'0 0.0
2017-Dec-10 02:22N 32°08' W 081°08'0 0.0
2017-Dec-10 01:58N 32°08' W 081°08'0 0.0
2017-Dec-10 01:28N 32°08' W 081°08'0 0.0
2017-Dec-10 00:58N 32°08' W 081°08'0 0.0
2017-Dec-10 00:22N 32°08' W 081°08'0 0.0
2017-Dec-09 23:58N 32°08' W 081°08'0 0.0
2017-Dec-09 23:28N 32°08' W 081°08'0 0.0
2017-Dec-09 22:58N 32°08' W 081°08'0 0.0
2017-Dec-09 22:28N 32°08' W 081°08'0 0.0
2017-Dec-09 21:58N 32°08' W 081°08'0 0.0
2017-Dec-09 21:28N 32°08' W 081°08'0 0.0
2017-Dec-09 20:58N 32°08' W 081°08'0 0.0
2017-Dec-09 20:28N 32°08' W 081°08'0 0.0
2017-Dec-09 19:58N 32°08' W 081°08'0 0.0
2017-Dec-09 19:28N 32°08' W 081°08'0 0.0
2017-Dec-09 18:58N 32°08' W 081°08'0 0.0
2017-Dec-09 18:28N 32°08' W 081°08'0 0.0
2017-Dec-09 17:58N 32°08' W 081°08'0 0.0
2017-Dec-09 17:28N 32°08' W 081°08'0 0.0
2017-Dec-09 16:58N 32°08' W 081°08'0 0.0
2017-Dec-09 16:28N 32°08' W 081°08'0 0.0
2017-Dec-09 15:52N 32°08' W 081°08'0 0.0
2017-Dec-09 15:22N 32°08' W 081°08'0 0.0
2017-Dec-09 14:58N 32°08' W 081°08'0 0.0
2017-Dec-09 14:28N 32°08' W 081°08'0 0.0
2017-Dec-09 13:58N 32°08' W 081°08'0 0.0
2017-Dec-09 13:28N 32°08' W 081°08'0 0.0
2017-Dec-09 12:58N 32°08' W 081°08'0 0.0
2017-Dec-09 12:28N 32°08' W 081°08'0 0.0
2017-Dec-09 11:46N 32°08' W 081°08'0 0.0
2017-Dec-09 11:28N 32°08' W 081°08'0 0.0
2017-Dec-09 10:58N 32°08' W 081°08'0 0.0
2017-Dec-09 10:31N 32°08' W 081°08'1 1.3
2017-Dec-09 10:01N 32°07' W 081°08'3 6.0
2017-Dec-09 09:30N 32°05' W 081°05'2 4.9
2017-Dec-09 09:01N 32°05' W 081°03'4 7.7
2017-Dec-09 08:30N 32°04' W 080°58'510.2
2017-Dec-09 08:01N 32°02' W 080°53'713.2
2017-Dec-09 07:30N 31°59' W 080°46'713.0
2017-Dec-09 07:00N 31°56' W 080°39'5 8.7
2017-Dec-09 06:28N 31°57' W 080°33'3 6.8
2017-Dec-09 05:58N 31°58' W 080°30'1 1.5
2017-Dec-09 05:09N 31°59' W 080°29'0 0.9
2017-Dec-09 04:45N 31°59' W 080°28'2 1.8
2017-Dec-09 03:33N 31°59' W 080°31'0 4.6
2017-Dec-09 03:30N 31°59' W 080°31'1 1.6
2017-Dec-09 02:50N 31°59' W 080°32'1 0.2
2017-Dec-08 21:43N 31°58' W 080°32'0 0.1
2017-Dec-08 21:25N 31°58' W 080°32'0 0.0
2017-Dec-07 19:19N 31°58' W 080°32'0 0.0
2017-Dec-07 18:55N 31°58' W 080°32'0 0.0
2017-Dec-07 06:49N 31°58' W 080°32'0 0.0
2017-Dec-07 04:19N 31°58' W 080°32'0 0.1
2017-Dec-07 02:49N 31°58' W 080°32'2 5.7
2017-Dec-07 02:28N 31°58' W 080°29'  
2017-Dec-04 03:00N 30°12' W 079°06'11012.2 010 / 151018.410.8 21.016.024.4
2017-Dec-03 18:00N 28°42' W 077°54'4514.9 280 / 101018.410.8 24.818.026.8
2017-Dec-03 15:00N 28°06' W 077°24'12313.7 360 / 51020.910.8 26.018.227.2
2017-Dec-03 06:00N 26°24' W 076°06'4515.0 040 / 201018.210.8 28.516.627.9
2017-Dec-03 03:00N 25°48' W 075°36'16914.1 040 / 181017.410.8 25.018.828.4
2017-Dec-02 15:00N 23°30' W 073°48'6822.7
2017-Dec-02 12:00N 22°24' W 073°30'9911.0 030 / 201014.910.8 26.820.629.6
2017-Dec-02 03:00N 20°48' W 073°54'4214.0 050 / 201012.310.8 26.023.130.4
2017-Dec-02 00:00N 20°06' W 073°54'13314.7 040 / 151012.410.8 28.123.030.7
2017-Dec-01 15:00N 18°06' W 074°54'4314.2 030 / 71013.310.8 29.023.230.1
2017-Dec-01 12:00N 17°30' W 075°18'9115.1 030 / 101012.810.8 27.722.430.4
2017-Dec-01 06:00N 16°12' W 076°06'4515.1 040 / 121011.210.8 27.224.030.6
2017-Dec-01 03:00N 15°30' W 076°24'17414.5 040 / 171012.310.8 28.023.730.4
2017-Nov-30 15:00N 13°00' W 077°54'   050 / 241012.310.8 29.024.830.2

Dump ship's entire track history